Time,TemperatureF,DewpointF,PressureIn,WindDirection,WindDirectionDegrees,WindSpeedMPH,WindSpeedGustMPH,Humidity,HourlyPrecipIn,Conditions,Clouds,dailyrainin,SoftwareType,DateUTC
2013-01-10 00:29:00,42.4,25.1,30.05,West,265,8.0,16.0,50,0.00,BKN,SCT,0.00,WeatherDisplay:10.37,2013-01-10 05:29:00,
2013-01-10 00:59:00,42.2,26.3,30.06,West,266,8.0,18.0,53,0.00,BKN,SCT,0.00,WeatherDisplay:10.37,2013-01-10 05:59:00,
2013-01-10 01:29:00,42.5,28.3,30.07,West,267,8.0,17.0,57,0.00,CLR,SCT,0.00,WeatherDisplay:10.37,2013-01-10 06:29:00,
2013-01-10 01:59:00,40.8,30.3,30.10,West,261,9.0,19.0,66,0.00,CLR,SCT,0.00,WeatherDisplay:10.37,2013-01-10 06:59:00,
2013-01-10 02:59:00,39.6,29.9,30.12,NW,307,6.0,17.0,68,0.00,FEW,SCT,0.00,WeatherDisplay:10.37,2013-01-10 07:59:00,
2013-01-10 03:29:00,40.5,25.6,30.14,NW,305,7.0,19.0,55,0.00,FEW,SCT,0.00,WeatherDisplay:10.37,2013-01-10 08:29:00,
2013-01-10 03:59:00,40.5,23.3,30.16,NW,307,12.0,17.0,50,0.00,FEW,SCT,0.00,WeatherDisplay:10.37,2013-01-10 08:59:00,
2013-01-10 04:29:00,39.9,24.1,30.19,West,260,7.0,14.0,53,0.00,CLR,SCT,0.00,WeatherDisplay:10.37,2013-01-10 09:29:00,
2013-01-10 04:59:00,39.7,22.6,30.20,WNW,293,7.0,19.0,50,0.00,CLR,SCT,0.00,WeatherDisplay:10.37,2013-01-10 09:59:00,
2013-01-10 05:30:00,39.0,21.4,30.22,NW,315,6.0,12.0,49,0.00,CLR,SCT,0.00,WeatherDisplay:10.37,2013-01-10 10:30:00,
2013-01-10 05:59:00,38.3,20.8,30.26,WNW,301,3.0,10.0,49,0.00,CLR,SCT,0.00,WeatherDisplay:10.37,2013-01-10 10:59:00,
2013-01-10 06:29:00,36.9,21.3,30.27,West,274,2.0,6.0,53,0.00,CLR,SCT,0.00,WeatherDisplay:10.37,2013-01-10 11:29:00,
2013-01-10 06:59:00,36.1,21.5,30.29,West,276,0.0,7.0,55,0.00,CLR,SCT,0.00,WeatherDisplay:10.37,2013-01-10 11:59:00,
2013-01-10 07:29:00,34.5,23.6,30.30,WNW,297,3.0,5.0,64,0.00,CLR,SCT,0.00,WeatherDisplay:10.37,2013-01-10 12:29:00,
2013-01-10 07:59:00,36.5,22.3,30.32,West,271,6.0,12.0,56,0.00,CLR,SCT,0.00,WeatherDisplay:10.37,2013-01-10 12:59:00,
2013-01-10 08:29:00,38.8,22.2,30.33,West,260,6.0,10.0,51,0.00,CLR,SCT,0.00,WeatherDisplay:10.37,2013-01-10 13:29:00,
2013-01-10 08:59:00,39.4,21.8,30.34,NW,305,6.0,11.0,49,0.00,CLR,SCT,0.00,WeatherDisplay:10.37,2013-01-10 13:59:00,
2013-01-10 09:29:00,40.1,21.5,30.34,WNW,300,8.0,13.0,47,0.00,CLR,SCT,0.00,WeatherDisplay:10.37,2013-01-10 14:29:00,
2013-01-10 10:00:00,40.6,21.4,30.36,WNW,296,8.0,15.0,46,0.00,CLR,SCT,0.00,WeatherDisplay:10.37,2013-01-10 15:00:00,
2013-01-10 10:29:00,41.4,20.5,30.37,NW,319,3.0,18.0,43,0.00,CLR,SCT,0.00,WeatherDisplay:10.37,2013-01-10 15:29:00,
2013-01-10 10:59:00,41.8,20.4,30.38,WNW,301,6.0,14.0,42,0.00,CLR,SCT,0.00,WeatherDisplay:10.37,2013-01-10 15:59:00,
2013-01-10 11:29:00,43.6,20.3,30.37,NW,318,5.0,12.0,39,0.00,CLR,SCT,0.00,WeatherDisplay:10.37,2013-01-10 16:29:00,
2013-01-10 11:59:00,44.2,20.2,30.35,WNW,297,5.0,13.0,38,0.00,CLR,SCT,0.00,WeatherDisplay:10.37,2013-01-10 16:59:00,
2013-01-10 12:29:00,45.0,20.3,30.35,WNW,292,6.0,11.0,37,0.00,CLR,SCT,0.00,WeatherDisplay:10.37,2013-01-10 17:29:00,
2013-01-10 12:59:00,45.0,19.6,30.36,West,273,8.0,20.0,36,0.00,CLR,SCT,0.00,WeatherDisplay:10.37,2013-01-10 17:59:00,
2013-01-10 13:29:00,44.9,19.6,30.37,WNW,288,8.0,17.0,36,0.00,CLR,SCT,0.00,WeatherDisplay:10.37,2013-01-10 18:29:00,
2013-01-10 13:59:00,45.3,21.1,30.38,NNW,344,5.0,14.0,38,0.00,CLR,SCT,0.00,WeatherDisplay:10.37,2013-01-10 18:59:00,
2013-01-10 14:29:00,45.0,19.6,30.40,WNW,288,2.0,11.0,36,0.00,CLR,SCT,0.00,WeatherDisplay:10.37,2013-01-10 19:29:00,
2013-01-10 14:59:00,43.7,19.7,30.41,NW,315,7.0,12.0,38,0.00,CLR,SCT,0.00,WeatherDisplay:10.37,2013-01-10 19:59:00,
2013-01-10 15:29:00,43.2,19.9,30.42,WNW,300,7.0,10.0,39,0.00,CLR,SCT,0.00,WeatherDisplay:10.37,2013-01-10 20:29:00,
2013-01-10 15:59:00,42.1,20.1,30.43,West,280,5.0,10.0,41,0.00,CLR,SCT,0.00,WeatherDisplay:10.37,2013-01-10 20:59:00,
2013-01-10 16:59:00,40.3,21.1,30.45,WNW,293,8.0,10.0,46,0.00,CLR,SCT,0.00,WeatherDisplay:10.37,2013-01-10 21:59:00,
2013-01-10 17:29:00,39.0,21.4,30.46,West,274,3.0,7.0,49,0.00,CLR,SCT,0.00,WeatherDisplay:10.37,2013-01-10 22:29:00,
2013-01-10 17:59:00,35.8,24.8,30.46,West,262,1.0,5.0,64,0.00,CLR,SCT,0.00,WeatherDisplay:10.37,2013-01-10 22:59:00,
2013-01-10 18:29:00,36.3,22.5,30.47,WNW,302,5.0,8.0,57,0.00,CLR,SCT,0.00,WeatherDisplay:10.37,2013-01-10 23:29:00,
2013-01-10 18:59:00,35.9,23.7,30.49,WNW,284,2.0,7.0,61,0.00,CLR,SCT,0.00,WeatherDisplay:10.37,2013-01-10 23:59:00,
2013-01-10 19:29:00,34.6,24.4,30.50,West,266,1.0,6.0,66,0.00,CLR,SCT,0.00,WeatherDisplay:10.37,2013-01-11 00:29:00,
2013-01-10 19:59:00,32.7,26.0,30.51,South,173,0.0,4.0,76,0.00,CLR,SCT,0.00,WeatherDisplay:10.37,2013-01-11 00:59:00,
2013-01-10 20:29:00,30.6,28.3,30.51,ESE,120,0.0,2.0,91,0.00,CLR,SCT,0.00,WeatherDisplay:10.37,2013-01-11 01:29:00,
2013-01-10 20:59:00,32.7,29.3,30.53,WNW,303,3.0,5.0,87,0.00,CLR,SCT,0.00,WeatherDisplay:10.37,2013-01-11 01:59:00,
2013-01-10 21:29:00,33.4,26.3,30.53,WSW,251,2.0,7.0,75,0.00,CLR,SCT,0.00,WeatherDisplay:10.37,2013-01-11 02:29:00,
2013-01-10 21:59:00,33.4,25.7,30.54,WNW,299,3.0,7.0,73,0.00,CLR,SCT,0.00,WeatherDisplay:10.37,2013-01-11 02:59:00,
2013-01-10 22:29:00,32.7,27.2,30.54,NW,319,1.0,7.0,80,0.00,CLR,SCT,0.00,WeatherDisplay:10.37,2013-01-11 03:29:00,
2013-01-10 22:59:00,31.8,29.4,30.54,ENE,58,0.0,5.0,91,0.00,CLR,SCT,0.00,WeatherDisplay:10.37,2013-01-11 03:59:00,
2013-01-10 23:29:00,29.3,27.0,30.54,SW,236,0.0,2.0,91,0.00,CLR,SCT,0.00,WeatherDisplay:10.37,2013-01-11 04:29:00,
2013-01-10 23:59:00,27.5,25.2,30.53,SSW,204,0.0,2.0,91,0.00,CLR,SCT,0.00,WeatherDisplay:10.37,2013-01-11 04:59:00,